Time;durP1;ratioP1;P1;durP2;ratioP2;P2;SDS_P1;SDS_P2;PMS_P1;PMS_P2;Temp;Humidity;BMP_temperature;BMP_pressure;BME280_temperature;BME280_humidity;BME280_pressure;Samples;Min_cycle;Max_cycle;Signal;HPM_P1;HPM_P2
2023/07/20 00:01:46;;;;;;;6.8;5;;;;;;;;;;;;;
2023/07/20 00:06:57;;;;;;;7.2;4.9;;;;;;;;;;;;;
2023/07/20 00:09:22;;;;;;;7.4;4.8;;;;;;;;;;;;;
2023/07/20 00:11:47;;;;;;;7.5;5;;;;;;;;;;;;;
2023/07/20 00:14:12;;;;;;;8.1;4.9;;;;;;;;;;;;;
2023/07/20 00:16:37;;;;;;;6.1;4.3;;;;;;;;;;;;;
2023/07/20 00:19:04;;;;;;;7;4.4;;;;;;;;;;;;;
2023/07/20 00:21:29;;;;;;;6.8;4.4;;;;;;;;;;;;;
2023/07/20 00:23:56;;;;;;;6;4.3;;;;;;;;;;;;;
2023/07/20 00:26:21;;;;;;;5.5;4.1;;;;;;;;;;;;;
2023/07/20 00:28:46;;;;;;;8.5;4.5;;;;;;;;;;;;;
2023/07/20 00:31:12;;;;;;;6.7;4.3;;;;;;;;;;;;;
2023/07/20 00:33:39;;;;;;;7.1;4.5;;;;;;;;;;;;;
2023/07/20 00:36:04;;;;;;;8.4;4.3;;;;;;;;;;;;;
2023/07/20 00:38:29;;;;;;;5.9;4.5;;;;;;;;;;;;;
2023/07/20 00:40:54;;;;;;;6.3;4.6;;;;;;;;;;;;;
2023/07/20 00:43:20;;;;;;;6.8;4.1;;;;;;;;;;;;;
2023/07/20 00:45:45;;;;;;;7.6;4.1;;;;;;;;;;;;;
2023/07/20 00:48:12;;;;;;;6.7;4;;;;;;;;;;;;;
2023/07/20 00:50:36;;;;;;;6.6;4.1;;;;;;;;;;;;;
2023/07/20 00:53:02;;;;;;;5.6;4.2;;;;;;;;;;;;;
2023/07/20 00:55:27;;;;;;;5.9;4.5;;;;;;;;;;;;;
2023/07/20 00:58:06;;;;;;;6.4;4.5;;;;;;;;;;;;;
2023/07/20 01:00:34;;;;;;;8.5;4.7;;;;;;;;;;;;;
2023/07/20 01:02:59;;;;;;;7.6;4.3;;;;;;;;;;;;;
2023/07/20 01:05:26;;;;;;;7;4.5;;;;;;;;;;;;;
2023/07/20 01:07:51;;;;;;;6.6;4.7;;;;;;;;;;;;;
2023/07/20 01:10:17;;;;;;;6.9;4.3;;;;;;;;;;;;;
2023/07/20 01:12:43;;;;;;;5.8;4.5;;;;;;;;;;;;;
2023/07/20 01:15:09;;;;;;;7.1;4.4;;;;;;;;;;;;;
2023/07/20 01:17:34;;;;;;;6.6;4.5;;;;;;;;;;;;;
2023/07/20 01:20:00;;;;;;;8.1;4.7;;;;;;;;;;;;;
2023/07/20 01:22:25;;;;;;;6.6;4.4;;;;;;;;;;;;;
2023/07/20 01:24:50;;;;;;;5.3;4.3;;;;;;;;;;;;;
2023/07/20 01:27:16;;;;;;;6.3;4.1;;;;;;;;;;;;;
2023/07/20 01:29:41;;;;;;;6.6;4.2;;;;;;;;;;;;;
2023/07/20 01:32:07;;;;;;;6;4.3;;;;;;;;;;;;;
2023/07/20 01:34:31;;;;;;;6.5;3.9;;;;;;;;;;;;;
2023/07/20 01:36:56;;;;;;;6;4.2;;;;;;;;;;;;;
2023/07/20 01:39:21;;;;;;;6.6;4.2;;;;;;;;;;;;;
2023/07/20 01:41:46;;;;;;;5.8;4.2;;;;;;;;;;;;;
2023/07/20 01:44:11;;;;;;;5.9;3.9;;;;;;;;;;;;;
2023/07/20 01:46:38;;;;;;;6.1;3.9;;;;;;;;;;;;;
2023/07/20 01:49:03;;;;;;;7;4.2;;;;;;;;;;;;;
2023/07/20 01:51:30;;;;;;;6.2;4.3;;;;;;;;;;;;;
2023/07/20 01:53:55;;;;;;;6.2;4.1;;;;;;;;;;;;;
2023/07/20 01:56:22;;;;;;;7.7;4.4;;;;;;;;;;;;;
2023/07/20 01:58:47;;;;;;;6.8;4.2;;;;;;;;;;;;;
2023/07/20 02:01:13;;;;;;;6.6;4.3;;;;;;;;;;;;;
2023/07/20 02:03:39;;;;;;;5.1;4;;;;;;;;;;;;;
2023/07/20 02:06:05;;;;;;;6.8;4.2;;;;;;;;;;;;;
2023/07/20 02:08:30;;;;;;;6;3.8;;;;;;;;;;;;;
2023/07/20 02:10:55;;;;;;;5.9;4;;;;;;;;;;;;;
2023/07/20 02:13:20;;;;;;;5.5;4.3;;;;;;;;;;;;;
2023/07/20 02:15:49;;;;;;;6.9;4.1;;;;;;;;;;;;;
2023/07/20 02:18:13;;;;;;;5.6;4;;;;;;;;;;;;;
2023/07/20 02:20:40;;;;;;;4.7;3.7;;;;;;;;;;;;;
2023/07/20 02:23:05;;;;;;;5.7;4.2;;;;;;;;;;;;;
2023/07/20 02:25:33;;;;;;;6.8;4.5;;;;;;;;;;;;;
2023/07/20 02:27:58;;;;;;;5.6;3.9;;;;;;;;;;;;;
2023/07/20 02:30:25;;;;;;;5.9;4.1;;;;;;;;;;;;;
2023/07/20 02:32:50;;;;;;;4.8;4;;;;;;;;;;;;;
2023/07/20 02:35:16;;;;;;;4.7;3.7;;;;;;;;;;;;;
2023/07/20 02:37:41;;;;;;;6.8;4.3;;;;;;;;;;;;;
2023/07/20 02:40:07;;;;;;;5.8;3.9;;;;;;;;;;;;;
2023/07/20 02:42:31;;;;;;;7.9;3.9;;;;;;;;;;;;;
2023/07/20 02:44:56;;;;;;;5.7;3.6;;;;;;;;;;;;;
2023/07/20 02:47:21;;;;;;;6;4.1;;;;;;;;;;;;;
2023/07/20 02:49:49;;;;;;;5.5;3.8;;;;;;;;;;;;;
2023/07/20 02:52:14;;;;;;;7.2;3.4;;;;;;;;;;;;;
2023/07/20 02:54:41;;;;;;;5;3.4;;;;;;;;;;;;;
2023/07/20 02:57:06;;;;;;;5.3;3.8;;;;;;;;;;;;;
2023/07/20 02:59:32;;;;;;;5.1;3.8;;;;;;;;;;;;;
2023/07/20 03:01:57;;;;;;;5;3.9;;;;;;;;;;;;;
2023/07/20 03:04:23;;;;;;;6.4;3.8;;;;;;;;;;;;;
2023/07/20 03:06:48;;;;;;;4.8;3.6;;;;;;;;;;;;;
2023/07/20 03:09:15;;;;;;;5.3;3.7;;;;;;;;;;;;;
2023/07/20 03:11:39;;;;;;;4.7;3.4;;;;;;;;;;;;;
2023/07/20 03:14:04;;;;;;;6.2;3.6;;;;;;;;;;;;;
2023/07/20 03:16:32;;;;;;;5.3;3.7;;;;;;;;;;;;;
2023/07/20 03:18:54;;;;;;;4.9;3.6;;;;;;;;;;;;;
2023/07/20 03:21:20;;;;;;;4.7;3.7;;;;;;;;;;;;;
2023/07/20 03:23:45;;;;;;;5.4;3.9;;;;;;;;;;;;;
2023/07/20 03:26:10;;;;;;;6.3;3.8;;;;;;;;;;;;;
2023/07/20 03:28:35;;;;;;;7.3;3.8;;;;;;;;;;;;;
2023/07/20 03:31:02;;;;;;;4.6;3.4;;;;;;;;;;;;;
2023/07/20 03:33:27;;;;;;;5.6;3.8;;;;;;;;;;;;;
2023/07/20 03:35:53;;;;;;;4.7;3.6;;;;;;;;;;;;;
2023/07/20 03:38:18;;;;;;;4;3.3;;;;;;;;;;;;;
2023/07/20 03:40:44;;;;;;;5.6;3.6;;;;;;;;;;;;;
2023/07/20 03:43:09;;;;;;;4.2;3.7;;;;;;;;;;;;;
2023/07/20 03:45:36;;;;;;;4.2;3.5;;;;;;;;;;;;;
2023/07/20 03:48:01;;;;;;;4;3.3;;;;;;;;;;;;;
2023/07/20 03:50:28;;;;;;;4.6;3.2;;;;;;;;;;;;;
2023/07/20 03:52:53;;;;;;;3.9;3.1;;;;;;;;;;;;;
2023/07/20 03:55:19;;;;;;;5.6;3.4;;;;;;;;;;;;;
2023/07/20 03:57:44;;;;;;;6.4;3.5;;;;;;;;;;;;;
2023/07/20 04:02:34;;;;;;;6;3.5;;;;;;;18.34;100;937.111;;;;
2023/07/20 04:04:59;;;;;;;5;3.6;;;;;;;18.32;100;937.142;;;;
2023/07/20 04:07:24;;;;;;;6.3;3.4;;;;;;;18.28;100;937.0962;;;;
2023/07/20 04:09:53;;;;;;;4.5;3.4;;;;;;;18.32;100;937.0211;;;;
2023/07/20 04:12:18;;;;;;;4.3;3.5;;;;;;;18.39;100;937.0517;;;;
2023/07/20 04:14:43;;;;;;;5.5;3.5;;;;;;;18.44;100;937.1331;;;;
2023/07/20 04:17:08;;;;;;;5.3;4;;;;;;;18.48;100;937.1741;;;;
2023/07/20 04:19:40;;;;;;;4.4;3.5;;;;;;;18.46;100;937.1553;;;;
2023/07/20 04:22:05;;;;;;;4.6;3.9;;;;;;;18.49;100;937.1005;;;;
2023/07/20 04:24:32;;;;;;;4.6;3.2;;;;;;;18.55;99.80273;937.1967;;;;
2023/07/20 04:26:58;;;;;;;5;3.9;;;;;;;18.58;100;937.2896;;;;
2023/07/20 04:29:23;;;;;;;5.6;3.4;;;;;;;18.62;100;937.2307;;;;
2023/07/20 04:31:52;;;;;;;5.3;3.7;;;;;;;18.59;100;937.2072;;;;
2023/07/20 04:34:23;;;;;;;5.5;3.6;;;;;;;18.5;100;937.2769;;;;
2023/07/20 04:36:49;;;;;;;5.9;3.6;;;;;;;18.4;100;937.17;;;;
2023/07/20 04:39:17;;;;;;;4.7;3.8;;;;;;;18.39;100;937.2765;;;;
2023/07/20 04:41:47;;;;;;;5.3;3.6;;;;;;;18.33;100;937.2313;;;;
2023/07/20 04:44:13;;;;;;;4.9;3.4;;;;;;;18.37;100;937.173;;;;
2023/07/20 04:46:42;;;;;;;5.7;3.8;;;;;;;18.46;100;937.2511;;;;
2023/07/20 04:49:06;;;;;;;5.1;4.2;;;;;;;18.39;100;937.2942;;;;
2023/07/20 04:51:33;;;;;;;4.1;3.6;;;;;;;18.34;100;937.3172;;;;
2023/07/20 04:53:58;;;;;;;5.6;3.5;;;;;;;18.43;100;937.3962;;;;
2023/07/20 04:56:26;;;;;;;5.8;3.5;;;;;;;18.41;100;937.3842;;;;
2023/07/20 04:58:51;;;;;;;3.8;3.4;;;;;;;18.48;100;937.3911;;;;
2023/07/20 05:01:23;;;;;;;5;3.9;;;;;;;18.45;100;937.4295;;;;
2023/07/20 05:03:54;;;;;;;4;3.3;;;;;;;18.23;100;937.3608;;;;
2023/07/20 05:06:21;;;;;;;5.7;3.3;;;;;;;18.29;100;937.3989;;;;
2023/07/20 05:08:46;;;;;;;4.1;3.6;;;;;;;18.3;100;937.4608;;;;
2023/07/20 05:11:11;;;;;;;4.6;3.5;;;;;;;18.29;100;937.457;;;;
2023/07/20 05:13:38;;;;;;;5.3;3.8;;;;;;;18.31;100;937.4324;;;;
2023/07/20 05:16:03;;;;;;;3.9;3.5;;;;;;;18.34;100;937.4511;;;;
2023/07/20 05:18:32;;;;;;;5.6;3.7;;;;;;;18.33;100;937.4239;;;;
2023/07/20 05:20:57;;;;;;;4.8;3.8;;;;;;;18.29;100;937.4626;;;;
2023/07/20 05:23:28;;;;;;;4.4;3.8;;;;;;;18.28;100;937.4853;;;;
2023/07/20 05:25:58;;;;;;;6;3.6;;;;;;;18.24;100;937.4622;;;;
2023/07/20 05:28:26;;;;;;;4.3;3.7;;;;;;;18.24;100;937.504;;;;
2023/07/20 05:30:51;;;;;;;3.9;3.5;;;;;;;18.33;100;937.4288;;;;
2023/07/20 05:33:20;;;;;;;6.7;4.1;;;;;;;18.38;100;937.4066;;;;
2023/07/20 05:35:45;;;;;;;5.8;4;;;;;;;18.45;100;937.4005;;;;
2023/07/20 05:38:16;;;;;;;5.2;3.3;;;;;;;18.48;100;937.4314;;;;
2023/07/20 05:40:47;;;;;;;5.4;3.6;;;;;;;18.5;100;937.4398;;;;
2023/07/20 05:43:18;;;;;;;5.4;3.4;;;;;;;18.57;99.54883;937.4222;;;;
2023/07/20 05:45:51;;;;;;;5.4;3.2;;;;;;;18.56;98.66504;937.4472;;;;
2023/07/20 05:48:21;;;;;;;4;3.1;;;;;;;18.53;97.34473;937.4077;;;;
2023/07/20 05:51:15;;;;;;;4.5;3.4;;;;;;;18.52;99.35254;937.3531;;;;
2023/07/20 05:53:40;;;;;;;5.3;3.9;;;;;;;18.24;100;937.4137;;;;
2023/07/20 05:56:09;;;;;;;6.9;3.6;;;;;;;18.43;100;937.5156;;;;
2023/07/20 05:58:37;;;;;;;5.1;3.4;;;;;;;18.43;98.09961;937.4817;;;;
2023/07/20 06:01:03;;;;;;;4.3;3;;;;;;;18.54;99.04297;937.4897;;;;
2023/07/20 06:03:33;;;;;;;3.8;2.8;;;;;;;18.4;97.69824;937.4554;;;;
2023/07/20 06:05:57;;;;;;;4.2;3.1;;;;;;;18.47;98.08887;937.4936;;;;
2023/07/20 06:08:24;;;;;;;3.9;3.1;;;;;;;18.61;98;937.517;;;;
2023/07/20 06:10:50;;;;;;;3.9;2.8;;;;;;;18.69;96.77344;937.4667;;;;
2023/07/20 06:13:18;;;;;;;3.9;2.8;;;;;;;18.84;94.85254;937.4344;;;;
2023/07/20 06:15:44;;;;;;;3.3;2.7;;;;;;;18.77;95.24414;937.4858;;;;
2023/07/20 06:18:13;;;;;;;4.1;2.7;;;;;;;18.76;93.28711;937.5408;;;;
2023/07/20 06:20:41;;;;;;;6;2.8;;;;;;;18.85;93.90039;937.4551;;;;
2023/07/20 06:23:07;;;;;;;3.7;2.5;;;;;;;18.94;92.3252;937.466;;;;
2023/07/20 06:25:32;;;;;;;4.8;2.6;;;;;;;18.99;90.14551;937.4414;;;;
2023/07/20 06:30:55;;;;;;;3.3;2.3;;;;;;;18.97;87.80273;937.4402;;;;
2023/07/20 06:33:26;;;;;;;3.2;2.5;;;;;;;19.06;88.79883;937.4489;;;;
2023/07/20 06:35:52;;;;;;;4.4;2.3;;;;;;;18.83;89.42773;937.454;;;;
2023/07/20 06:38:23;;;;;;;3.1;2.2;;;;;;;18.83;89.74219;937.4395;;;;
2023/07/20 06:40:50;;;;;;;2.6;2.1;;;;;;;18.95;89.90723;937.4034;;;;
2023/07/20 06:43:15;;;;;;;4;2.3;;;;;;;19.09;87.8623;937.5272;;;;
2023/07/20 06:45:47;;;;;;;3.2;2.1;;;;;;;19.03;88.30371;937.4955;;;;
2023/07/20 06:48:16;;;;;;;3.8;2.5;;;;;;;19.06;86.84375;937.5213;;;;
2023/07/20 06:50:47;;;;;;;2.5;2;;;;;;;19.12;85.96973;937.507;;;;
2023/07/20 06:53:17;;;;;;;3.2;2.3;;;;;;;19.21;87.05859;937.4886;;;;
2023/07/20 06:55:42;;;;;;;3.8;1.9;;;;;;;19.19;86.63574;937.5182;;;;
2023/07/20 06:58:12;;;;;;;3.7;2.3;;;;;;;19.37;85.4248;937.5106;;;;
2023/07/20 07:00:37;;;;;;;3.7;2.1;;;;;;;19.43;84.74805;937.545;;;;
2023/07/20 07:03:07;;;;;;;3.2;2.1;;;;;;;19.51;83.75;937.5679;;;;
2023/07/20 07:05:32;;;;;;;3.2;2.2;;;;;;;19.51;84.9502;937.5681;;;;
2023/07/20 07:07:58;;;;;;;3.6;2.3;;;;;;;;;;;;;
2023/07/20 07:10:23;;;;;;;3.3;1.8;;;;;;;;;;;;;
2023/07/20 07:12:48;;;;;;;3.8;2.1;;;;;;;;;;;;;
2023/07/20 07:15:13;;;;;;;5.1;2.1;;;;;;;;;;;;;
2023/07/20 07:17:40;;;;;;;3.4;2;;;;;;;;;;;;;
2023/07/20 07:20:05;;;;;;;3.9;2.1;;;;;;;;;;;;;
2023/07/20 07:22:32;;;;;;;2.9;2;;;;;;;;;;;;;
2023/07/20 07:24:57;;;;;;;2.7;2;;;;;;;;;;;;;
2023/07/20 07:27:22;;;;;;;3.6;2.2;;;;;;;;;;;;;
2023/07/20 07:29:49;;;;;;;2.5;2.2;;;;;;;;;;;;;
2023/07/20 07:32:13;;;;;;;4;2;;;;;;;;;;;;;
2023/07/20 07:34:38;;;;;;;2.4;2.1;;;;;;;;;;;;;
2023/07/20 07:37:06;;;;;;;3.9;2.3;;;;;;;;;;;;;
2023/07/20 07:39:31;;;;;;;3.4;2.4;;;;;;;;;;;;;
2023/07/20 07:41:56;;;;;;;2.3;2;;;;;;;;;;;;;
2023/07/20 07:44:22;;;;;;;3;2.4;;;;;;;;;;;;;
2023/07/20 07:46:48;;;;;;;3.2;2.1;;;;;;;;;;;;;
2023/07/20 07:49:13;;;;;;;2.8;2.2;;;;;;;;;;;;;
2023/07/20 07:51:38;;;;;;;3;2.3;;;;;;;;;;;;;
2023/07/20 07:54:03;;;;;;;2.6;2;;;;;;;;;;;;;
2023/07/20 07:56:29;;;;;;;11.5;2.7;;;;;;;;;;;;;
2023/07/20 07:58:54;;;;;;;3;2.2;;;;;;;;;;;;;
2023/07/20 08:01:22;;;;;;;5.1;2.1;;;;;;;;;;;;;
2023/07/20 08:03:47;;;;;;;3.4;1.8;;;;;;;;;;;;;
2023/07/20 08:06:13;;;;;;;4.3;2;;;;;;;;;;;;;
2023/07/20 08:08:38;;;;;;;7.5;2.1;;;;;;;;;;;;;
2023/07/20 08:11:03;;;;;;;6.7;2.9;;;;;;;;;;;;;
2023/07/20 08:13:29;;;;;;;5.8;2.5;;;;;;;;;;;;;
2023/07/20 08:15:56;;;;;;;3.3;1.9;;;;;;;;;;;;;
2023/07/20 08:18:21;;;;;;;3.5;2.1;;;;;;;;;;;;;
2023/07/20 08:20:49;;;;;;;3.4;2.2;;;;;;;;;;;;;
2023/07/20 08:23:12;;;;;;;2.7;1.9;;;;;;;;;;;;;
2023/07/20 08:25:39;;;;;;;2.4;1.5;;;;;;;;;;;;;
2023/07/20 08:28:02;;;;;;;3;1.7;;;;;;;;;;;;;
2023/07/20 08:30:30;;;;;;;4.3;1.8;;;;;;;;;;;;;
2023/07/20 08:32:55;;;;;;;3.4;1.7;;;;;;;;;;;;;
2023/07/20 08:35:22;;;;;;;4.4;1.9;;;;;;;;;;;;;
2023/07/20 08:37:47;;;;;;;2.6;1.7;;;;;;;;;;;;;
2023/07/20 08:40:15;;;;;;;1.5;1.4;;;;;;;;;;;;;
2023/07/20 08:42:40;;;;;;;4.2;1.6;;;;;;;;;;;;;
2023/07/20 08:45:05;;;;;;;3.9;1.6;;;;;;;;;;;;;
2023/07/20 08:47:30;;;;;;;1.9;1.6;;;;;;;;;;;;;
2023/07/20 08:49:57;;;;;;;1.9;1.7;;;;;;;;;;;;;
2023/07/20 08:52:22;;;;;;;3;1.9;;;;;;;;;;;;;
2023/07/20 08:54:49;;;;;;;2.6;1.6;;;;;;;;;;;;;
2023/07/20 08:57:14;;;;;;;2.2;1.6;;;;;;;;;;;;;
2023/07/20 08:59:40;;;;;;;2.2;1.4;;;;;;;;;;;;;
2023/07/20 09:02:05;;;;;;;2;1.7;;;;;;;;;;;;;
2023/07/20 09:04:32;;;;;;;2.4;1.8;;;;;;;;;;;;;
2023/07/20 09:06:57;;;;;;;3;2;;;;;;;;;;;;;
2023/07/20 09:09:23;;;;;;;1.8;1.6;;;;;;;;;;;;;
2023/07/20 09:11:48;;;;;;;5;1.9;;;;;;;;;;;;;
2023/07/20 09:14:14;;;;;;;2.2;1.6;;;;;;;;;;;;;
2023/07/20 09:16:39;;;;;;;1.9;1.7;;;;;;;;;;;;;
2023/07/20 09:19:04;;;;;;;3.5;1.6;;;;;;;;;;;;;
2023/07/20 09:21:29;;;;;;;2.2;1.5;;;;;;;;;;;;;
2023/07/20 09:23:56;;;;;;;2.7;1.5;;;;;;;;;;;;;
2023/07/20 09:26:21;;;;;;;1.6;1.5;;;;;;;;;;;;;
2023/07/20 09:28:47;;;;;;;2.2;1.4;;;;;;;;;;;;;
2023/07/20 09:31:12;;;;;;;3.1;1.5;;;;;;;;;;;;;
2023/07/20 09:33:38;;;;;;;1.9;1.4;;;;;;;;;;;;;
2023/07/20 09:36:03;;;;;;;1.7;1.5;;;;;;;;;;;;;
2023/07/20 09:38:28;;;;;;;3.3;1.7;;;;;;;;;;;;;
2023/07/20 09:40:53;;;;;;;2.6;1.4;;;;;;;;;;;;;
2023/07/20 09:43:20;;;;;;;2.4;1.8;;;;;;;;;;;;;
2023/07/20 09:45:45;;;;;;;2.7;1.4;;;;;;;;;;;;;
2023/07/20 09:48:10;;;;;;;2.7;1.8;;;;;;;;;;;;;
2023/07/20 09:50:35;;;;;;;2.5;1.7;;;;;;;;;;;;;
2023/07/20 09:53:00;;;;;;;3.7;1.5;;;;;;;;;;;;;
2023/07/20 09:55:28;;;;;;;6.4;3.8;;;;;;;;;;;;;
2023/07/20 09:57:53;;;;;;;2;1.4;;;;;;;;;;;;;
2023/07/20 10:00:20;;;;;;;2.8;1.8;;;;;;;;;;;;;
2023/07/20 10:02:45;;;;;;;2.4;1.7;;;;;;;;;;;;;
2023/07/20 10:05:13;;;;;;;2.7;1.7;;;;;;;;;;;;;
2023/07/20 10:07:38;;;;;;;2;1.6;;;;;;;;;;;;;
2023/07/20 10:10:05;;;;;;;3.2;1.8;;;;;;;;;;;;;
2023/07/20 10:12:28;;;;;;;2.9;2;;;;;;;;;;;;;
2023/07/20 10:14:56;;;;;;;2.2;1.6;;;;;;;;;;;;;
2023/07/20 10:17:21;;;;;;;1.6;1.5;;;;;;;;;;;;;
2023/07/20 10:19:47;;;;;;;2.7;1.6;;;;;;;;;;;;;
2023/07/20 10:22:12;;;;;;;1.8;1.5;;;;;;;;;;;;;
2023/07/20 10:24:39;;;;;;;3.4;1.8;;;;;;;;;;;;;
2023/07/20 10:27:04;;;;;;;2.5;1.5;;;;;;;;;;;;;
2023/07/20 10:29:29;;;;;;;1.8;1.5;;;;;;;;;;;;;
2023/07/20 10:31:54;;;;;;;2.6;1.7;;;;;;;;;;;;;
2023/07/20 10:34:22;;;;;;;2.9;1.8;;;;;;;;;;;;;
2023/07/20 10:36:51;;;;;;;6.9;1.8;;;;;;;;;;;;;
2023/07/20 10:39:12;;;;;;;4.4;1.6;;;;;;;;;;;;;
2023/07/20 10:41:37;;;;;;;2.2;1.6;;;;;;;;;;;;;
2023/07/20 10:44:03;;;;;;;2.4;1.8;;;;;;;;;;;;;
2023/07/20 10:46:29;;;;;;;1.8;1.6;;;;;;;;;;;;;
2023/07/20 10:48:54;;;;;;;3.8;1.7;;;;;;;;;;;;;
2023/07/20 10:51:20;;;;;;;2.4;1.6;;;;;;;;;;;;;
2023/07/20 10:53:46;;;;;;;2.7;1.7;;;;;;;;;;;;;
2023/07/20 10:56:12;;;;;;;3.3;1.9;;;;;;;;;;;;;
2023/07/20 10:58:37;;;;;;;4.1;2;;;;;;;;;;;;;
2023/07/20 11:01:02;;;;;;;4.9;1.9;;;;;;;;;;;;;
2023/07/20 11:03:27;;;;;;;3.2;1.6;;;;;;;;;;;;;
2023/07/20 11:05:54;;;;;;;3.5;1.9;;;;;;;;;;;;;
2023/07/20 11:08:18;;;;;;;2.9;1.7;;;;;;;;;;;;;
2023/07/20 11:10:44;;;;;;;1.7;1.6;;;;;;;;;;;;;
2023/07/20 11:13:09;;;;;;;2.9;1.8;;;;;;;;;;;;;
2023/07/20 11:15:38;;;;;;;5.5;1.7;;;;;;;;;;;;;
2023/07/20 11:18:03;;;;;;;2.6;1.7;;;;;;;;;;;;;
2023/07/20 11:20:29;;;;;;;4.8;1.8;;;;;;;;;;;;;
2023/07/20 11:22:55;;;;;;;2.5;1.8;;;;;;;;;;;;;
2023/07/20 11:25:21;;;;;;;2.4;2;;;;;;;;;;;;;
2023/07/20 11:27:46;;;;;;;3;1.7;;;;;;;;;;;;;
2023/07/20 11:30:16;;;;;;;2;1.6;;;;;;;;;;;;;
2023/07/20 11:32:41;;;;;;;2.9;1.6;;;;;;;;;;;;;
2023/07/20 11:35:07;;;;;;;2.1;1.7;;;;;;;;;;;;;
2023/07/20 11:37:32;;;;;;;4.6;1.7;;;;;;;;;;;;;
2023/07/20 11:39:58;;;;;;;2.6;1.9;;;;;;;;;;;;;
2023/07/20 11:42:23;;;;;;;4;1.8;;;;;;;;;;;;;
2023/07/20 11:44:48;;;;;;;2.7;1.9;;;;;;;;;;;;;
2023/07/20 11:47:13;;;;;;;2.7;1.8;;;;;;;;;;;;;
2023/07/20 11:49:38;;;;;;;2.9;1.6;;;;;;;;;;;;;
2023/07/20 11:52:05;;;;;;;2.3;1.7;;;;;;;;;;;;;
2023/07/20 11:54:30;;;;;;;3.8;1.9;;;;;;;;;;;;;
2023/07/20 11:56:56;;;;;;;2;1.6;;;;;;;;;;;;;
2023/07/20 11:59:21;;;;;;;3.4;1.9;;;;;;;;;;;;;
2023/07/20 12:01:47;;;;;;;5.3;1.8;;;;;;;;;;;;;
2023/07/20 12:04:12;;;;;;;3.5;1.9;;;;;;;;;;;;;
2023/07/20 12:06:38;;;;;;;3.6;2.1;;;;;;;;;;;;;
2023/07/20 12:09:03;;;;;;;2.6;1.9;;;;;;;;;;;;;
2023/07/20 12:11:30;;;;;;;3.2;1.8;;;;;;;;;;;;;
2023/07/20 12:13:55;;;;;;;3.5;1.9;;;;;;;;;;;;;
2023/07/20 12:16:21;;;;;;;3.1;2.3;;;;;;;;;;;;;
2023/07/20 12:18:47;;;;;;;4.3;2;;;;;;;;;;;;;
2023/07/20 12:21:12;;;;;;;3.2;2.2;;;;;;;;;;;;;
2023/07/20 12:23:38;;;;;;;2.7;2;;;;;;;;;;;;;
2023/07/20 12:26:03;;;;;;;1.7;1.6;;;;;;;;;;;;;
2023/07/20 12:28:51;;;;;;;2.9;1.8;;;;;;;;;;;;;
2023/07/20 12:31:18;;;;;;;2.8;2.1;;;;;;;;;;;;;
2023/07/20 12:33:43;;;;;;;2.7;1.7;;;;;;;;;;;;;
2023/07/20 12:36:10;;;;;;;2.4;1.9;;;;;;;;;;;;;
2023/07/20 12:38:35;;;;;;;3.5;2;;;;;;;;;;;;;
2023/07/20 12:41:00;;;;;;;2.3;1.9;;;;;;;;;;;;;
2023/07/20 12:43:25;;;;;;;2.9;2.1;;;;;;;;;;;;;
2023/07/20 12:45:53;;;;;;;3.4;1.9;;;;;;;;;;;;;
2023/07/20 12:48:18;;;;;;;2.5;2;;;;;;;;;;;;;
2023/07/20 12:50:44;;;;;;;2.2;1.9;;;;;;;;;;;;;
2023/07/20 12:53:09;;;;;;;3.2;2;;;;;;;;;;;;;
2023/07/20 12:55:35;;;;;;;2.4;2;;;;;;;;;;;;;
2023/07/20 12:58:00;;;;;;;3.2;1.9;;;;;;;;;;;;;
2023/07/20 13:00:27;;;;;;;2.3;1.8;;;;;;;;;;;;;
2023/07/20 13:02:52;;;;;;;3.1;2;;;;;;;;;;;;;
2023/07/20 13:05:18;;;;;;;3.4;2.2;;;;;;;;;;;;;
2023/07/20 13:07:43;;;;;;;3.3;2.1;;;;;;;;;;;;;
2023/07/20 13:10:12;;;;;;;3.2;2;;;;;;;;;;;;;
2023/07/20 13:12:40;;;;;;;3;2;;;;;;;;;;;;;
2023/07/20 13:15:06;;;;;;;4.3;2.1;;;;;;;;;;;;;
2023/07/20 13:17:30;;;;;;;3.1;2.3;;;;;;;;;;;;;
2023/07/20 13:19:57;;;;;;;2.3;1.9;;;;;;;;;;;;;
2023/07/20 13:22:23;;;;;;;4;1.7;;;;;;;;;;;;;
2023/07/20 13:24:48;;;;;;;3.3;1.9;;;;;;;;;;;;;
2023/07/20 13:27:13;;;;;;;2.2;2;;;;;;;;;;;;;
2023/07/20 13:29:40;;;;;;;3.4;1.8;;;;;;;;;;;;;
2023/07/20 13:32:06;;;;;;;2.5;1.9;;;;;;;;;;;;;
2023/07/20 13:34:31;;;;;;;3.2;2.2;;;;;;;;;;;;;
2023/07/20 13:36:56;;;;;;;3.8;1.8;;;;;;;;;;;;;
2023/07/20 13:39:24;;;;;;;3.1;1.9;;;;;;;;;;;;;
2023/07/20 13:41:47;;;;;;;2.3;1.9;;;;;;;;;;;;;
2023/07/20 13:44:14;;;;;;;4.2;2.1;;;;;;;;;;;;;
2023/07/20 13:46:44;;;;;;;4.5;1.9;;;;;;;;;;;;;
2023/07/20 13:49:10;;;;;;;3.5;2;;;;;;;;;;;;;
2023/07/20 13:51:35;;;;;;;2.8;1.9;;;;;;;;;;;;;
2023/07/20 13:54:01;;;;;;;4.2;1.7;;;;;;;;;;;;;
2023/07/20 13:56:26;;;;;;;3.3;1.9;;;;;;;;;;;;;
2023/07/20 13:58:53;;;;;;;2.3;2;;;;;;;;;;;;;
2023/07/20 14:01:18;;;;;;;2.5;1.9;;;;;;;;;;;;;
2023/07/20 14:03:43;;;;;;;2.8;2.1;;;;;;;;;;;;;
2023/07/20 14:06:08;;;;;;;3.5;1.9;;;;;;;;;;;;;
2023/07/20 14:08:34;;;;;;;3.5;2.2;;;;;;;;;;;;;
2023/07/20 14:11:00;;;;;;;4.7;1.7;;;;;;;;;;;;;
2023/07/20 14:13:25;;;;;;;2.9;1.9;;;;;;;;;;;;;
2023/07/20 14:15:52;;;;;;;3.3;2;;;;;;;;;;;;;
2023/07/20 14:18:17;;;;;;;4.4;2.2;;;;;;;;;;;;;
2023/07/20 14:20:44;;;;;;;10.9;4.6;;;;;;;;;;;;;
2023/07/20 14:23:09;;;;;;;10.5;3.9;;;;;;;;;;;;;
2023/07/20 14:25:36;;;;;;;7.1;3.4;;;;;;;;;;;;;
2023/07/20 14:28:02;;;;;;;4.6;2.5;;;;;;;;;;;;;
2023/07/20 14:30:28;;;;;;;11.3;4.5;;;;;;;;;;;;;
2023/07/20 14:32:53;;;;;;;8.3;3.8;;;;;;;;;;;;;
2023/07/20 14:35:22;;;;;;;4;2;;;;;;;;;;;;;
2023/07/20 14:37:46;;;;;;;3.4;2.1;;;;;;;;;;;;;
2023/07/20 14:40:17;;;;;;;2.7;2.1;;;;;;;;;;;;;
2023/07/20 14:42:47;;;;;;;2.7;1.8;;;;;;;;;;;;;
2023/07/20 14:45:12;;;;;;;2.2;1.9;;;;;;;;;;;;;
2023/07/20 14:47:42;;;;;;;4.8;2.2;;;;;;;;;;;;;
2023/07/20 14:50:06;;;;;;;2.6;2.2;;;;;;;;;;;;;
2023/07/20 14:52:34;;;;;;;3.9;2.3;;;;;;;;;;;;;
2023/07/20 14:54:59;;;;;;;3.3;2.4;;;;;;;;;;;;;
2023/07/20 14:58:01;;;;;;;3.4;2;;;;;;;;;;;;;
2023/07/20 15:00:21;;;;;;;3.8;2;;;;;;;;;;;;;
2023/07/20 15:02:47;;;;;;;2.4;1.9;;;;;;;;;;;;;
2023/07/20 15:05:14;;;;;;;3;2.1;;;;;;;;;;;;;
2023/07/20 15:07:43;;;;;;;2.3;2.1;;;;;;;;;;;;;
2023/07/20 15:10:06;;;;;;;3;2.1;;;;;;;;;;;;;
2023/07/20 15:15:31;;;;;;;3.2;2.2;;;;;;;;;;;;;
2023/07/20 15:17:56;;;;;;;3.9;2.2;;;;;;;;;;;;;
2023/07/20 15:20:23;;;;;;;3.3;2.2;;;;;;;;;;;;;
2023/07/20 15:22:48;;;;;;;2.8;1.9;;;;;;;;;;;;;
2023/07/20 15:25:16;;;;;;;3.1;1.9;;;;;;;;;;;;;
2023/07/20 15:27:42;;;;;;;3;2.2;;;;;;;;;;;;;
2023/07/20 15:30:10;;;;;;;7;2.3;;;;;;;;;;;;;
2023/07/20 15:32:35;;;;;;;2.3;2;;;;;;;;;;;;;
2023/07/20 15:35:00;;;;;;;2.5;1.8;;;;;;;;;;;;;
2023/07/20 15:37:25;;;;;;;2.2;2;;;;;;;;;;;;;
2023/07/20 15:39:52;;;;;;;2.2;1.9;;;;;;;;;;;;;
2023/07/20 15:42:17;;;;;;;2.6;2.2;;;;;;;;;;;;;
2023/07/20 15:44:44;;;;;;;3.1;2.1;;;;;;;;;;;;;
2023/07/20 15:47:09;;;;;;;3.4;2.1;;;;;;;;;;;;;
2023/07/20 15:49:35;;;;;;;4.3;2;;;;;;;;;;;;;
2023/07/20 15:51:59;;;;;;;2.4;1.8;;;;;;;;;;;;;
2023/07/20 15:54:26;;;;;;;3.4;2.1;;;;;;;;;;;;;
2023/07/20 15:56:51;;;;;;;2.8;2;;;;;;;;;;;;;
2023/07/20 15:59:17;;;;;;;3.6;2.3;;;;;;;;;;;;;
2023/07/20 16:01:42;;;;;;;2.8;1.9;;;;;;;;;;;;;
2023/07/20 16:04:07;;;;;;;3;1.9;;;;;;;;;;;;;
2023/07/20 16:06:32;;;;;;;2.9;2.2;;;;;;;;;;;;;
2023/07/20 16:08:59;;;;;;;4.8;2.3;;;;;;;;;;;;;
2023/07/20 16:11:24;;;;;;;3.2;2.2;;;;;;;;;;;;;
2023/07/20 16:13:50;;;;;;;3.7;2.1;;;;;;;;;;;;;
2023/07/20 16:16:15;;;;;;;2.7;2;;;;;;;;;;;;;
2023/07/20 16:18:41;;;;;;;2.3;1.9;;;;;;;;;;;;;
2023/07/20 16:21:06;;;;;;;1.7;1.6;;;;;;;;;;;;;
2023/07/20 16:23:33;;;;;;;2.3;1.9;;;;;;;;;;;;;
2023/07/20 16:25:58;;;;;;;4.2;2.2;;;;;;;;;;;;;
2023/07/20 16:28:24;;;;;;;2.9;1.9;;;;;;;;;;;;;
2023/07/20 16:30:48;;;;;;;2.9;2;;;;;;;;;;;;;
2023/07/20 16:33:16;;;;;;;3;2;;;;;;;;;;;;;
2023/07/20 16:35:41;;;;;;;3;2;;;;;;;;;;;;;
2023/07/20 16:38:10;;;;;;;3.7;2;;;;;;;;;;;;;
2023/07/20 16:40:34;;;;;;;3.5;2.1;;;;;;;;;;;;;
2023/07/20 16:43:01;;;;;;;2.9;2.1;;;;;;;;;;;;;
2023/07/20 16:45:26;;;;;;;4;1.9;;;;;;;;;;;;;
2023/07/20 16:47:51;;;;;;;3.2;2.1;;;;;;;;;;;;;
2023/07/20 16:50:16;;;;;;;2.7;2;;;;;;;;;;;;;
2023/07/20 16:52:44;;;;;;;3.7;2.1;;;;;;;;;;;;;
2023/07/20 16:55:09;;;;;;;3;2.1;;;;;;;;;;;;;
2023/07/20 16:57:36;;;;;;;2.6;2;;;;;;;;;;;;;
2023/07/20 17:00:01;;;;;;;3;2.2;;;;;;;;;;;;;
2023/07/20 17:02:27;;;;;;;2.7;2;;;;;;;;;;;;;
2023/07/20 17:04:53;;;;;;;3.1;2.1;;;;;;;;;;;;;
2023/07/20 17:07:19;;;;;;;3.8;2.2;;;;;;;;;;;;;
2023/07/20 17:09:45;;;;;;;3.1;2;;;;;;;;;;;;;
2023/07/20 17:12:11;;;;;;;3;2;;;;;;;;;;;;;
2023/07/20 17:14:37;;;;;;;2.5;2.2;;;;;;;;;;;;;
2023/07/20 17:17:01;;;;;;;3.4;1.8;;;;;;;;;;;;;
2023/07/20 17:19:27;;;;;;;3.7;2.1;;;;;;;;;;;;;
2023/07/20 17:21:54;;;;;;;3.3;2;;;;;;;;;;;;;
2023/07/20 17:24:19;;;;;;;2.5;1.8;;;;;;;;;;;;;
2023/07/20 17:26:47;;;;;;;2.7;2;;;;;;;;;;;;;
2023/07/20 17:29:11;;;;;;;2.3;2;;;;;;;;;;;;;
2023/07/20 17:31:37;;;;;;;3.4;2.1;;;;;;;;;;;;;
2023/07/20 17:34:02;;;;;;;3.7;2.2;;;;;;;;;;;;;
2023/07/20 17:36:29;;;;;;;3.7;2.2;;;;;;;;;;;;;
2023/07/20 17:38:54;;;;;;;4.3;2.2;;;;;;;;;;;;;
2023/07/20 17:41:19;;;;;;;4.9;2.2;;;;;;;;;;;;;
2023/07/20 17:43:44;;;;;;;3.4;2.5;;;;;;;;;;;;;
2023/07/20 17:46:11;;;;;;;2.2;2;;;;;;;;;;;;;
2023/07/20 17:48:36;;;;;;;5.1;2;;;;;;;;;;;;;
2023/07/20 17:51:02;;;;;;;2.6;2.1;;;;;;;;;;;;;
2023/07/20 17:53:27;;;;;;;3.4;2.3;;;;;;;;;;;;;
2023/07/20 17:55:54;;;;;;;3.7;2.4;;;;;;;;;;;;;
2023/07/20 17:58:20;;;;;;;5;2.6;;;;;;;;;;;;;
2023/07/20 18:00:45;;;;;;;3.4;2.5;;;;;;;;;;;;;
2023/07/20 18:03:11;;;;;;;4.2;2.2;;;;;;;;;;;;;
2023/07/20 18:05:39;;;;;;;4.2;2.2;;;;;;;;;;;;;
2023/07/20 18:08:04;;;;;;;2.7;2.4;;;;;;;;;;;;;
2023/07/20 18:10:32;;;;;;;2.4;2;;;;;;;;;;;;;
2023/07/20 18:12:57;;;;;;;2.4;2.2;;;;;;;;;;;;;
2023/07/20 18:15:22;;;;;;;3.7;2.3;;;;;;;;;;;;;
2023/07/20 18:17:47;;;;;;;3.5;2.3;;;;;;;;;;;;;
2023/07/20 18:20:14;;;;;;;3.4;2.3;;;;;;;;;;;;;
2023/07/20 18:22:40;;;;;;;4;2.4;;;;;;;;;;;;;
2023/07/20 18:25:07;;;;;;;3.5;2.3;;;;;;;;;;;;;
2023/07/20 18:27:32;;;;;;;3.6;2.6;;;;;;;;;;;;;
2023/07/20 18:29:57;;;;;;;4.8;2.7;;;;;;;;;;;;;
2023/07/20 18:32:22;;;;;;;4.8;2.4;;;;;;;;;;;;;
2023/07/20 18:34:48;;;;;;;4.9;2.6;;;;;;;;;;;;;
2023/07/20 18:37:17;;;;;;;3.8;2.5;;;;;;;;;;;;;
2023/07/20 18:39:38;;;;;;;4.3;2.3;;;;;;;;;;;;;
2023/07/20 18:42:04;;;;;;;5.3;2.4;;;;;;;;;;;;;
2023/07/20 18:44:29;;;;;;;4.1;2.6;;;;;;;;;;;;;
2023/07/20 18:46:55;;;;;;;6.2;2.8;;;;;;;;;;;;;
2023/07/20 18:49:20;;;;;;;3.3;2.8;;;;;;;;;;;;;
2023/07/20 18:51:46;;;;;;;3.4;2.4;;;;;;;;;;;;;
2023/07/20 18:54:11;;;;;;;4.2;2.4;;;;;;;;;;;;;
2023/07/20 18:56:36;;;;;;;3.2;2.2;;;;;;;;;;;;;
2023/07/20 18:59:01;;;;;;;3.1;2.5;;;;;;;;;;;;;
2023/07/20 19:01:27;;;;;;;4.6;2.6;;;;;;;;;;;;;
2023/07/20 19:03:53;;;;;;;3.8;2.1;;;;;;;;;;;;;
2023/07/20 19:06:19;;;;;;;3.9;2.4;;;;;;;;;;;;;
2023/07/20 19:08:44;;;;;;;4;2.5;;;;;;;;;;;;;
2023/07/20 19:11:11;;;;;;;3.1;2.4;;;;;;;;;;;;;
2023/07/20 19:13:36;;;;;;;4.3;2.3;;;;;;;;;;;;;
2023/07/20 19:16:05;;;;;;;4.7;2.5;;;;;;;;;;;;;
2023/07/20 19:18:29;;;;;;;3.4;2.4;;;;;;;;;;;;;
2023/07/20 19:20:56;;;;;;;3.4;2.1;;;;;;;;;;;;;
2023/07/20 19:23:20;;;;;;;3.7;2.5;;;;;;;;;;;;;
2023/07/20 19:25:47;;;;;;;5;2.1;;;;;;;;;;;;;
2023/07/20 19:28:12;;;;;;;3.1;2.3;;;;;;;;;;;;;
2023/07/20 19:30:38;;;;;;;3.2;2.5;;;;;;;;;;;;;
2023/07/20 19:33:03;;;;;;;3.9;2.4;;;;;;;;;;;;;
2023/07/20 19:35:33;;;;;;;4;2.5;;;;;;;;;;;;;
2023/07/20 19:37:53;;;;;;;4.1;2.4;;;;;;;;;;;;;
2023/07/20 19:40:39;;;;;;;3.6;2.3;;;;;;;;;;;;;
2023/07/20 19:43:06;;;;;;;3.3;2.3;;;;;;;;;;;;;
2023/07/20 19:45:30;;;;;;;3.6;2.2;;;;;;;;;;;;;